createdAt,value
2018-07-20T00:00:47.369Z,16.4
2018-07-20T00:01:37.705Z,16.4
2018-07-20T00:02:27.797Z,16.4
2018-07-20T00:03:17.568Z,16.4
2018-07-20T00:04:07.644Z,16.4
2018-07-20T00:04:57.984Z,16.4
2018-07-20T00:05:48.016Z,16.4
2018-07-20T00:06:38.097Z,16.4
2018-07-20T00:07:28.165Z,16.4
2018-07-20T00:08:18.256Z,16.4
2018-07-20T00:09:08.317Z,16.4
2018-07-20T00:09:58.338Z,16.4
2018-07-20T00:10:47.913Z,16.4
2018-07-20T00:11:38.466Z,16.4
2018-07-20T00:12:28.547Z,16.4
2018-07-20T00:13:17.843Z,16.4
2018-07-20T00:14:08.206Z,16.4
2018-07-20T00:14:58.001Z,16.4
2018-07-20T00:15:48.027Z,16.4
2018-07-20T00:16:38.492Z,16.4
2018-07-20T00:17:28.429Z,16.4
2018-07-20T00:18:18.514Z,16.4
2018-07-20T00:19:08.019Z,16.4
2018-07-20T00:19:58.839Z,16.4
2018-07-20T00:20:49.200Z,16.4
2018-07-20T00:21:38.511Z,16.4
2018-07-20T00:22:29.040Z,16.5
2018-07-20T00:23:19.361Z,16.4
2018-07-20T00:24:09.420Z,16.5
2018-07-20T00:24:59.531Z,16.5
2018-07-20T00:25:49.564Z,16.5
2018-07-20T00:26:39.636Z,16.5
2018-07-20T00:27:29.425Z,16.5
2018-07-20T00:28:19.489Z,16.5
2018-07-20T00:29:09.544Z,16.5
2018-07-20T00:29:59.600Z,16.5
2018-07-20T00:30:49.977Z,16.5
2018-07-20T00:31:39.719Z,16.5
2018-07-20T00:32:29.521Z,16.5
2018-07-20T00:33:19.849Z,16.6
2018-07-20T00:34:09.964Z,16.6
2018-07-20T00:34:59.985Z,16.6
2018-07-20T00:35:50.343Z,16.6
2018-07-20T00:36:39.869Z,16.6
2018-07-20T00:37:30.201Z,16.6
2018-07-20T00:38:20.574Z,16.6
2018-07-20T00:39:10.572Z,16.6
2018-07-20T00:40:00.391Z,16.6
2018-07-20T00:40:50.424Z,16.6
2018-07-20T00:41:40.197Z,16.6
2018-07-20T00:42:30.079Z,16.6
2018-07-20T00:43:20.414Z,16.6
2018-07-20T00:44:10.221Z,16.6
2018-07-20T00:45:00.274Z,16.6
2018-07-20T00:45:50.339Z,16.7
2018-07-20T00:46:40.663Z,16.7
2018-07-20T00:47:30.443Z,16.7
2018-07-20T00:48:20.522Z,16.8
2018-07-20T00:49:11.332Z,16.7
2018-07-20T00:50:01.403Z,16.8
2018-07-20T00:50:51.466Z,16.8
2018-07-20T00:51:41.254Z,16.8
2018-07-20T00:52:31.296Z,16.8
2018-07-20T00:53:21.386Z,16.8
2018-07-20T00:54:11.725Z,16.8
2018-07-20T00:55:01.509Z,16.9
2018-07-20T00:55:51.583Z,16.9
2018-07-20T00:56:41.909Z,16.9
2018-07-20T00:57:31.711Z,16.9
2018-07-20T00:58:21.759Z,16.9
2018-07-20T00:59:12.102Z,16.9
2018-07-20T01:00:01.631Z,16.9
2018-07-20T01:00:51.966Z,16.9
2018-07-20T01:02:32.114Z,16.9
2018-07-20T01:06:42.689Z,17.1
2018-07-20T01:07:32.746Z,17.1
2018-07-20T01:08:22.799Z,17.1
2018-07-20T01:09:12.852Z,17.1
2018-07-20T01:10:02.670Z,17.1
2018-07-20T01:10:53.008Z,17.1
2018-07-20T01:11:42.575Z,17.1
2018-07-20T01:12:33.126Z,17.1
2018-07-20T01:13:22.436Z,17.1
2018-07-20T01:14:12.444Z,17.1
2018-07-20T01:15:03.330Z,17.1
2018-07-20T01:15:52.909Z,17.2
2018-07-20T01:16:42.952Z,17.2
2018-07-20T01:17:32.751Z,17.2
2018-07-20T01:18:23.093Z,17.2
2018-07-20T01:19:13.154Z,17.2
2018-07-20T01:20:03.231Z,17.2
2018-07-20T01:20:53.261Z,17.2
2018-07-20T01:21:43.323Z,17.2
2018-07-20T01:22:33.592Z,17.2
2018-07-20T01:23:23.970Z,17.2
2018-07-20T01:24:13.753Z,17.3
2018-07-20T01:25:04.066Z,17.3
2018-07-20T01:25:54.146Z,17.3
2018-07-20T01:26:43.948Z,17.3
2018-07-20T01:27:34.261Z,17.2
2018-07-20T01:28:24.329Z,17.2
2018-07-20T01:29:14.112Z,17.2
2018-07-20T01:30:04.544Z,17.2
2018-07-20T01:30:54.509Z,17.2
2018-07-20T01:31:44.556Z,17.2
2018-07-20T01:32:34.646Z,17.2
2018-07-20T01:33:24.709Z,17.2
2018-07-20T01:34:14.486Z,17.2
2018-07-20T01:35:04.841Z,17.2
2018-07-20T01:35:54.616Z,17.2
2018-07-20T01:36:44.945Z,17.1
2018-07-20T01:37:34.731Z,17.1
2018-07-20T01:38:25.097Z,17.1
2018-07-20T01:39:14.879Z,17.1
2018-07-20T01:40:05.211Z,17.1
2018-07-20T01:40:55.008Z,17.1
2018-07-20T01:41:45.376Z,17.1
2018-07-20T01:42:35.423Z,17.1
2018-07-20T01:43:24.909Z,17.1
2018-07-20T01:44:14.973Z,17.1
2018-07-20T01:45:05.318Z,17.1
2018-07-20T01:45:55.717Z,17.1
2018-07-20T01:46:45.436Z,17.1
2018-07-20T01:47:35.525Z,17.1
2018-07-20T01:48:25.861Z,17.1
2018-07-20T01:49:15.921Z,17.1
2018-07-20T01:50:05.965Z,17.1
2018-07-20T01:50:55.765Z,17.1
2018-07-20T01:51:46.108Z,17.1
2018-07-20T01:52:35.887Z,17.1
2018-07-20T01:53:25.969Z,17.1
2018-07-20T01:54:16.324Z,17.1
2018-07-20T01:55:06.365Z,17.1
2018-07-20T01:55:56.409Z,17.1
2018-07-20T01:56:46.487Z,17.1
2018-07-20T01:57:36.278Z,17.1
2018-07-20T01:58:26.627Z,17.1
2018-07-20T01:59:16.665Z,17.1
2018-07-20T02:01:46.594Z,17.1
2018-07-20T02:02:36.919Z,17.1
2018-07-20T02:05:56.923Z,17.1
2018-07-20T02:06:47.240Z,17.1
2018-07-20T02:07:37.317Z,17.1
2018-07-20T02:10:07.507Z,17.1
2018-07-20T02:19:17.947Z,16.9
2018-07-20T02:20:08.297Z,16.9
2018-07-20T02:20:58.359Z,16.9
2018-07-20T02:21:48.124Z,16.9
2018-07-20T02:22:38.200Z,16.9
2018-07-20T02:23:28.560Z,16.9
2018-07-20T02:24:18.302Z,16.8
2018-07-20T02:25:08.392Z,16.9
2018-07-20T02:25:58.711Z,16.8
2018-07-20T02:26:48.819Z,16.8
2018-07-20T02:27:38.548Z,16.8
2018-07-20T02:28:28.611Z,16.8
2018-07-20T02:29:18.712Z,16.8
2018-07-20T02:30:09.050Z,16.8
2018-07-20T02:30:59.104Z,16.8
2018-07-20T02:31:48.883Z,16.8
2018-07-20T02:32:39.247Z,16.8
2018-07-20T02:33:28.736Z,16.8
2018-07-20T02:34:19.079Z,16.7
2018-07-20T02:35:09.412Z,16.8
2018-07-20T02:35:59.210Z,16.8
2018-07-20T02:36:49.259Z,16.7
2018-07-20T02:37:39.038Z,16.7
2018-07-20T02:38:29.642Z,16.7
2018-07-20T02:39:19.782Z,16.7
2018-07-20T02:40:09.811Z,16.7
2018-07-20T02:40:59.295Z,16.7
2018-07-20T02:41:49.164Z,16.6
2018-07-20T02:42:39.521Z,16.6
2018-07-20T02:43:29.287Z,16.6
2018-07-20T02:44:19.640Z,16.6
2018-07-20T02:45:09.468Z,16.6
2018-07-20T02:45:59.755Z,16.6
2018-07-20T02:46:49.826Z,16.6
2018-07-20T02:47:39.343Z,16.6
2018-07-20T02:48:29.387Z,16.6
2018-07-20T02:49:20.035Z,16.6
2018-07-20T02:50:10.100Z,16.6
2018-07-20T02:51:00.625Z,16.6
2018-07-20T02:51:50.434Z,16.6
2018-07-20T02:52:40.495Z,16.6
2018-07-20T02:53:30.517Z,16.6
2018-07-20T02:54:20.894Z,16.6
2018-07-20T02:55:10.680Z,16.6
2018-07-20T02:56:00.731Z,16.6
2018-07-20T02:56:50.324Z,16.6
2018-07-20T02:57:41.155Z,16.5
2018-07-20T02:58:30.440Z,16.5
2018-07-20T02:59:20.515Z,16.5
2018-07-20T03:00:10.853Z,16.5
2018-07-20T03:01:00.914Z,16.5
2018-07-20T03:01:50.420Z,16.5
2018-07-20T03:02:41.043Z,16.6
2018-07-20T03:03:30.835Z,16.5
2018-07-20T03:04:21.170Z,16.5
2018-07-20T03:05:10.939Z,16.5
2018-07-20T03:06:01.279Z,16.5
2018-07-20T03:06:50.779Z,16.5
2018-07-20T03:07:41.135Z,16.5
2018-07-20T03:08:31.947Z,16.5
2018-07-20T03:09:21.282Z,16.5
2018-07-20T03:10:11.817Z,16.5
2018-07-20T03:11:02.159Z,16.5
2018-07-20T03:11:51.465Z,16.5
2018-07-20T03:12:42.277Z,16.6
2018-07-20T03:13:32.349Z,16.5
2018-07-20T03:14:22.132Z,16.5
2018-07-20T03:15:12.014Z,16.5
2018-07-20T03:16:01.975Z,16.5
2018-07-20T03:16:52.598Z,16.5
2018-07-20T03:17:42.665Z,16.5
2018-07-20T03:18:32.713Z,16.5
2018-07-20T03:19:22.780Z,16.5
2018-07-20T03:20:12.840Z,16.6
2018-07-20T03:21:03.452Z,16.6
2018-07-20T03:21:52.704Z,16.6
2018-07-20T03:22:42.498Z,16.6
2018-07-20T03:23:33.119Z,16.6
2018-07-20T03:24:23.181Z,16.6
2018-07-20T03:25:13.370Z,16.6
2018-07-20T03:26:02.831Z,16.7
2018-07-20T03:26:52.596Z,16.7
2018-07-20T03:27:42.951Z,16.7
2018-07-20T03:28:32.713Z,16.8
2018-07-20T03:29:23.294Z,16.8
2018-07-20T03:30:13.087Z,16.8
2018-07-20T03:31:03.413Z,16.8
2018-07-20T03:31:53.758Z,16.8
2018-07-20T03:32:43.782Z,16.8
2018-07-20T03:33:33.364Z,16.9
2018-07-20T03:34:23.391Z,16.9
2018-07-20T03:35:14.021Z,16.9
2018-07-20T03:36:04.055Z,16.9
2018-07-20T03:36:53.303Z,16.9
2018-07-20T03:39:24.013Z,17.1
2018-07-20T03:40:14.105Z,17.1
2018-07-20T03:41:04.449Z,17.1
2018-07-20T03:41:53.732Z,17.1
2018-07-20T03:42:43.788Z,17.1
2018-07-20T03:43:34.135Z,17.2
2018-07-20T03:44:24.186Z,17.3
2018-07-20T03:45:14.277Z,17.3
2018-07-20T03:46:04.335Z,17.3
2018-07-20T03:46:54.426Z,17.3
2018-07-20T03:47:44.467Z,17.4
2018-07-20T03:48:34.735Z,17.4
2018-07-20T03:49:24.015Z,17.4
2018-07-20T03:50:14.855Z,17.5
2018-07-20T03:51:04.902Z,17.5
2018-07-20T03:51:55.278Z,17.6
2018-07-20T03:52:45.327Z,17.6
2018-07-20T03:53:35.106Z,17.7
2018-07-20T03:54:25.543Z,17.7
2018-07-20T03:55:15.583Z,17.8
2018-07-20T03:56:05.609Z,17.8
2018-07-20T03:56:55.344Z,17.9
2018-07-20T03:57:45.687Z,17.9
2018-07-20T03:58:35.464Z,17.9
2018-07-20T03:59:25.832Z,18
2018-07-20T04:00:15.894Z,18.1
2018-07-20T04:01:05.933Z,18.1
2018-07-20T04:01:56.189Z,18.2
2018-07-20T04:02:45.528Z,18.2
2018-07-20T04:03:36.156Z,18.3
2018-07-20T04:04:26.192Z,18.3
2018-07-20T04:05:16.267Z,18.4
2018-07-20T04:06:06.390Z,18.4
2018-07-20T04:06:56.139Z,18.5
2018-07-20T04:07:46.515Z,18.5
2018-07-20T04:08:36.551Z,18.6
2018-07-20T04:09:26.314Z,18.6
2018-07-20T04:11:06.723Z,18.8
2018-07-20T04:11:56.776Z,18.8
2018-07-20T04:12:46.826Z,18.9
2018-07-20T04:13:36.886Z,18.9
2018-07-20T04:14:26.980Z,19
2018-07-20T04:15:17.012Z,19.1
2018-07-20T04:16:07.091Z,19.2
2018-07-20T04:16:57.142Z,19.3
2018-07-20T04:17:46.944Z,19.4
2018-07-20T04:18:37.001Z,19.5
2018-07-20T04:19:27.375Z,19.7
2018-07-20T04:20:17.404Z,19.8
2018-07-20T04:21:07.518Z,20
2018-07-20T04:21:57.009Z,20.1
2018-07-20T04:22:47.615Z,20.3
2018-07-20T04:23:37.388Z,20.5
2018-07-20T04:24:27.744Z,20.7
2018-07-20T04:25:17.796Z,20.9
2018-07-20T04:26:57.364Z,21.3
2018-07-20T04:27:47.409Z,21.5
2018-07-20T04:28:37.492Z,21.8
2018-07-20T04:29:28.146Z,21.9
2018-07-20T04:30:17.878Z,22.1
2018-07-20T04:31:08.311Z,22.3
2018-07-20T04:31:57.726Z,22.6
2018-07-20T04:32:48.388Z,22.8
2018-07-20T04:33:38.417Z,22.9
2018-07-20T04:34:28.000Z,23.1
2018-07-20T04:35:18.576Z,23.4
2018-07-20T04:36:08.340Z,23.6
2018-07-20T04:36:58.686Z,23.7
2018-07-20T04:37:48.740Z,23.9
2018-07-20T04:38:38.790Z,24.1
2018-07-20T04:39:28.857Z,24.2
2018-07-20T04:40:18.913Z,24.3
2018-07-20T04:41:08.446Z,24.4
2018-07-20T04:41:59.039Z,24.6
2018-07-20T04:42:49.110Z,24.6
2018-07-20T04:43:39.196Z,24.7
2018-07-20T04:44:29.234Z,24.8
2018-07-20T04:45:19.027Z,24.8
2018-07-20T04:46:09.377Z,24.9
2018-07-20T04:46:59.427Z,24.9
2018-07-20T04:47:49.508Z,25
2018-07-20T04:48:39.580Z,25
2018-07-20T04:49:29.363Z,25.1
2018-07-20T04:50:19.680Z,25.1
2018-07-20T04:51:09.494Z,25.2
2018-07-20T04:51:58.978Z,25.3
2018-07-20T04:52:49.884Z,25.3
2018-07-20T04:53:39.683Z,25.3
2018-07-20T04:54:30.024Z,25.3
2018-07-20T04:55:19.232Z,25.3
2018-07-20T04:56:10.176Z,25.3
2018-07-20T04:56:59.164Z,25.3
2018-07-20T04:57:50.269Z,25.3
2018-07-20T04:58:40.091Z,25.3
2018-07-20T04:59:30.410Z,25.3
2018-07-20T05:00:20.187Z,25.3
2018-07-20T05:01:10.519Z,25.3
2018-07-20T05:02:00.324Z,25.3
2018-07-20T05:02:50.650Z,25.4
2018-07-20T05:03:40.908Z,25.4
2018-07-20T05:04:30.786Z,25.4
2018-07-20T05:05:20.282Z,25.5
2018-07-20T05:06:10.896Z,25.5
2018-07-20T05:07:01.021Z,25.6
2018-07-20T05:07:50.756Z,25.6
2018-07-20T05:08:41.241Z,25.8
2018-07-20T05:09:31.158Z,25.8
2018-07-20T05:10:21.235Z,25.9
2018-07-20T05:11:11.263Z,26
2018-07-20T05:12:01.342Z,26.2
2018-07-20T05:12:51.405Z,26.4
2018-07-20T05:13:41.508Z,26.6
2018-07-20T05:14:31.539Z,26.9
2018-07-20T05:15:21.320Z,27.1
2018-07-20T05:16:11.636Z,27.3
2018-07-20T05:17:01.727Z,27.5
2018-07-20T05:17:51.774Z,27.8
2018-07-20T05:18:41.314Z,28
2018-07-20T05:19:31.431Z,28.2
2018-07-20T05:20:21.250Z,28.3
2018-07-20T05:21:12.063Z,28.5
2018-07-20T05:22:01.804Z,28.6
2018-07-20T05:22:52.147Z,28.8
2018-07-20T05:23:41.962Z,28.9
2018-07-20T05:24:32.276Z,29.1
2018-07-20T05:25:22.346Z,29.3
2018-07-20T05:26:12.413Z,29.4
2018-07-20T05:27:02.504Z,29.5
2018-07-20T05:27:52.544Z,29.6
2018-07-20T05:28:42.348Z,29.8
2018-07-20T05:29:32.697Z,29.9
2018-07-20T05:30:22.443Z,29.9
2018-07-20T05:31:13.052Z,30
2018-07-20T05:32:02.611Z,30.1
2018-07-20T05:32:52.681Z,30.1
2018-07-20T05:33:42.983Z,30.3
2018-07-20T05:34:32.586Z,30.4
2018-07-20T05:35:22.844Z,30.5
2018-07-20T05:36:12.891Z,30.6
2018-07-20T05:37:03.240Z,30.8
2018-07-20T05:37:53.292Z,30.9
2018-07-20T05:38:43.362Z,31
2018-07-20T05:39:33.451Z,31.2
2018-07-20T05:40:23.525Z,31.6
2018-07-20T05:41:13.278Z,31.9
2018-07-20T05:42:03.629Z,32.4
2018-07-20T05:42:53.679Z,33.1
2018-07-20T05:43:43.206Z,33.7
2018-07-20T05:44:33.537Z,34.3
2018-07-20T05:45:23.329Z,34.9
2018-07-20T05:46:13.193Z,35.5
2018-07-20T05:47:04.001Z,36.2
2018-07-20T05:47:53.776Z,36.9
2018-07-20T05:48:44.169Z,37.7
2018-07-20T05:49:34.213Z,38.4
2018-07-20T05:50:23.713Z,39
2018-07-20T05:51:14.330Z,39.6
2018-07-20T05:52:04.423Z,40.3
2018-07-20T05:52:54.167Z,40.9
2018-07-20T05:53:44.225Z,41.5
2018-07-20T05:54:34.565Z,42.1
2018-07-20T05:55:24.625Z,42.6
2018-07-20T05:56:14.137Z,43
2018-07-20T05:57:04.749Z,43.4
2018-07-20T05:57:54.538Z,43.8
2018-07-20T05:58:44.875Z,44.1
2018-07-20T05:59:34.946Z,44.5
2018-07-20T06:00:25.027Z,44.8
2018-07-20T06:01:15.127Z,45.1
2018-07-20T06:02:05.131Z,45.4
2018-07-20T06:02:54.950Z,45.6
2018-07-20T06:03:44.991Z,45.6
2018-07-20T06:04:35.062Z,45.8
2018-07-20T06:05:25.539Z,45.9
2018-07-20T06:06:15.197Z,46.3
2018-07-20T06:07:05.285Z,46.6
2018-07-20T06:07:55.362Z,46.9
2018-07-20T06:08:45.408Z,47.3
2018-07-20T06:09:35.457Z,47.6
2018-07-20T06:10:25.811Z,47.8
2018-07-20T06:11:15.098Z,47.9
2018-07-20T06:12:05.936Z,48.1
2018-07-20T06:12:55.966Z,48.2
2018-07-20T06:13:45.769Z,48.2
2018-07-20T06:14:35.836Z,48.1
2018-07-20T06:15:26.169Z,48.1
2018-07-20T06:16:16.233Z,47.8
2018-07-20T06:17:06.043Z,47.8
2018-07-20T06:17:56.073Z,47.8
2018-07-20T06:18:46.163Z,47.8
2018-07-20T06:19:36.473Z,47.8
2018-07-20T06:20:26.558Z,47.8
2018-07-20T06:21:16.614Z,47.8
2018-07-20T06:22:06.510Z,47.8
2018-07-20T06:22:56.478Z,47.7
2018-07-20T06:23:46.641Z,47.6
2018-07-20T06:24:36.863Z,47.6
2018-07-20T06:25:26.917Z,47.5
2018-07-20T06:26:16.740Z,47.4
2018-07-20T06:27:07.074Z,47.3
2018-07-20T06:27:57.126Z,47.2
2018-07-20T06:28:47.187Z,47.1
2018-07-20T06:29:37.523Z,46.9
2018-07-20T06:30:27.307Z,46.8
2018-07-20T06:31:17.365Z,46.8
2018-07-20T06:32:07.451Z,46.7
2018-07-20T06:32:57.292Z,46.6
2018-07-20T06:33:47.574Z,46.4
2018-07-20T06:34:37.635Z,46.2
2018-07-20T06:35:27.679Z,46.1
2018-07-20T06:36:17.494Z,45.9
2018-07-20T06:37:07.837Z,45.7
2018-07-20T06:37:57.052Z,45.6
2018-07-20T06:38:47.957Z,45.4
2018-07-20T06:39:38.014Z,45.3
2018-07-20T06:40:28.076Z,45.1
2018-07-20T06:41:17.865Z,45
2018-07-20T06:42:07.662Z,44.8
2018-07-20T06:42:58.273Z,44.6
2018-07-20T06:43:48.339Z,44.6
2018-07-20T06:44:38.439Z,44.4
2018-07-20T06:45:28.479Z,44.4
2018-07-20T06:46:18.250Z,44.2
2018-07-20T06:47:08.580Z,44.1
2018-07-20T06:47:58.085Z,44
2018-07-20T06:48:48.449Z,43.9
2018-07-20T06:49:38.795Z,43.8
2018-07-20T06:50:28.844Z,43.8
2018-07-20T06:51:18.632Z,43.8
2018-07-20T06:52:08.979Z,43.8
2018-07-20T06:52:59.057Z,43.8
2018-07-20T06:53:49.114Z,43.8
2018-07-20T06:54:39.174Z,43.8
2018-07-20T06:55:28.941Z,43.9
2018-07-20T06:56:19.034Z,44.1
2018-07-20T06:57:09.390Z,44.3
2018-07-20T06:57:59.399Z,44.7
2018-07-20T06:58:49.535Z,45.1
2018-07-20T06:59:39.256Z,45.6
2018-07-20T07:00:29.314Z,45.9
2018-07-20T07:01:19.678Z,46.1
2018-07-20T07:02:09.448Z,46.3
2018-07-20T07:02:59.537Z,46.5
2018-07-20T07:03:49.867Z,46.5
2018-07-20T07:04:39.911Z,46.6
2018-07-20T07:05:29.696Z,46.6
2018-07-20T07:06:20.112Z,46.5
2018-07-20T07:07:09.574Z,46.4
2018-07-20T07:07:59.947Z,46.5
2018-07-20T07:08:49.705Z,46.6
2018-07-20T07:09:40.303Z,46.6
2018-07-20T07:10:30.365Z,46.6
2018-07-20T07:11:19.990Z,46.7
2018-07-20T07:12:10.206Z,46.7
2018-07-20T07:13:00.288Z,46.8
2018-07-20T07:13:50.630Z,47
2018-07-20T07:14:40.130Z,47.1
2018-07-20T07:15:30.770Z,47.3
2018-07-20T07:16:20.370Z,47.3
2018-07-20T07:17:10.903Z,47.3
2018-07-20T07:18:00.953Z,47.1
2018-07-20T07:18:51.049Z,46.9
2018-07-20T07:19:41.084Z,46.7
2018-07-20T07:20:31.148Z,46.4
2018-07-20T07:21:20.947Z,46.3
2018-07-20T07:22:11.340Z,46.1
2018-07-20T07:23:01.333Z,45.9
2018-07-20T07:23:51.437Z,45.9
2018-07-20T07:24:41.187Z,45.7
2018-07-20T07:25:31.514Z,45.5
2018-07-20T07:26:21.593Z,45.4
2018-07-20T07:27:11.659Z,45.3
2018-07-20T07:28:01.737Z,45.1
2018-07-20T07:28:51.799Z,44.9
2018-07-20T07:29:41.889Z,44.9
2018-07-20T07:30:31.334Z,44.7
2018-07-20T07:31:21.973Z,44.6
2018-07-20T07:32:12.030Z,44.4
2018-07-20T07:33:02.112Z,44.2
2018-07-20T07:33:52.136Z,43.9
2018-07-20T07:34:41.938Z,43.8
2018-07-20T07:35:32.026Z,43.6
2018-07-20T07:36:22.349Z,43.4
2018-07-20T07:37:12.431Z,43.3
2018-07-20T07:38:02.475Z,43.1
2018-07-20T07:38:52.282Z,42.9
2018-07-20T07:39:42.337Z,42.8
2018-07-20T07:40:32.385Z,42.7
2018-07-20T07:41:22.486Z,42.6
2018-07-20T07:42:13.216Z,42.6
2018-07-20T07:43:02.847Z,42.4
2018-07-20T07:43:52.663Z,42.5
2018-07-20T07:44:42.981Z,42.6
2018-07-20T07:45:32.757Z,42.5
2018-07-20T07:46:22.531Z,42.5
2018-07-20T07:47:13.189Z,42.4
2018-07-20T07:48:02.966Z,42.4
2018-07-20T07:48:53.269Z,42.4
2018-07-20T07:49:43.365Z,42.4
2018-07-20T07:50:33.130Z,42.4
2018-07-20T07:51:23.254Z,42.4
2018-07-20T07:52:13.534Z,42.5
2018-07-20T07:53:03.352Z,42.6
2018-07-20T07:53:53.399Z,42.8
2018-07-20T07:54:43.559Z,42.9
2018-07-20T07:55:33.849Z,42.9
2018-07-20T07:56:23.595Z,43
2018-07-20T07:57:14.003Z,43.2
2018-07-20T07:58:03.972Z,43.6
2018-07-20T07:58:53.854Z,44
2018-07-20T07:59:44.132Z,44.6
2018-07-20T08:00:34.201Z,45.1
2018-07-20T08:01:24.224Z,45.6
2018-07-20T08:02:14.319Z,46.6
2018-07-20T08:03:04.283Z,48
2018-07-20T08:03:54.162Z,49.6
2018-07-20T08:04:44.244Z,50.8
2018-07-20T08:05:34.574Z,51.8
2018-07-20T08:06:24.646Z,52.6
2018-07-20T08:07:14.688Z,54
2018-07-20T08:08:04.530Z,55.9
2018-07-20T08:08:54.666Z,54.8
2018-07-20T08:09:45.354Z,52.5
2018-07-20T08:10:34.667Z,47.3
2018-07-20T08:11:25.133Z,43.1
2018-07-20T08:12:14.803Z,41.2
2018-07-20T08:13:04.865Z,40.6
2018-07-20T08:13:54.982Z,40.8
2018-07-20T08:14:45.278Z,41.4
2018-07-20T08:15:35.054Z,42.3
2018-07-20T08:16:25.135Z,43.1
2018-07-20T08:17:15.510Z,44
2018-07-20T08:18:05.247Z,44.9
2018-07-20T08:18:55.288Z,45.8
2018-07-20T08:19:45.682Z,46.5
2018-07-20T08:20:35.737Z,47.3
2018-07-20T08:21:25.314Z,48.1
2018-07-20T08:22:15.851Z,49.1
2018-07-20T08:23:05.739Z,50.8
2018-07-20T08:23:55.953Z,52.6
2018-07-20T08:24:46.046Z,55.1
2018-07-20T08:25:36.083Z,57.4
2018-07-20T08:26:26.209Z,56.3
2018-07-20T08:27:16.215Z,55.7
2018-07-20T08:28:06.364Z,54.8
2018-07-20T08:28:56.322Z,52.6
2018-07-20T08:29:46.392Z,49.6
2018-07-20T08:30:36.487Z,47.7
2018-07-20T08:31:26.529Z,47.9
2018-07-20T08:32:16.597Z,49.7
2018-07-20T08:33:06.401Z,52
2018-07-20T08:33:56.723Z,53.7
2018-07-20T08:34:46.265Z,54.6
2018-07-20T08:35:36.608Z,54.6
2018-07-20T08:36:26.362Z,54.1
2018-07-20T08:37:16.679Z,53.8
2018-07-20T08:38:07.067Z,54
2018-07-20T08:38:56.855Z,54.6
2018-07-20T08:39:47.164Z,55.5
2018-07-20T08:40:37.276Z,56.1
2018-07-20T08:41:27.317Z,55.6
2018-07-20T08:42:17.128Z,53.9
2018-07-20T08:43:07.443Z,52.8
2018-07-20T08:43:57.206Z,53.1
2018-07-20T08:44:47.565Z,55
2018-07-20T08:45:37.613Z,56.3
2018-07-20T08:46:27.603Z,57.4
2018-07-20T08:47:17.780Z,57.9
2018-07-20T08:48:07.536Z,57.9
2018-07-20T08:48:57.891Z,57.6
2018-07-20T08:49:47.968Z,57.5
2018-07-20T08:50:38.018Z,57.7
2018-07-20T08:51:28.076Z,57.8
2018-07-20T08:52:18.133Z,56.9
2018-07-20T08:53:08.214Z,55.6
2018-07-20T08:53:58.563Z,55
2018-07-20T08:54:48.083Z,56.1
2018-07-20T08:55:38.132Z,57.6
2018-07-20T08:56:28.187Z,59
2018-07-20T08:57:18.525Z,60.1
2018-07-20T08:58:08.369Z,60.2
2018-07-20T08:58:58.639Z,60.1
2018-07-20T08:59:48.744Z,59.8
2018-07-20T09:00:38.779Z,59.9
2018-07-20T09:01:28.878Z,60.1
2018-07-20T09:02:19.149Z,60.6
2018-07-20T09:03:09.086Z,61.2
2018-07-20T09:03:58.748Z,61.5
2018-07-20T09:04:49.123Z,61.8
2018-07-20T09:05:38.864Z,61.9
2018-07-20T09:06:28.695Z,62
2018-07-20T09:07:19.054Z,62.2
2018-07-20T09:08:09.339Z,62.5
2018-07-20T09:08:59.443Z,63
2018-07-20T09:09:49.472Z,63.3
2018-07-20T09:10:39.270Z,63.5
2018-07-20T09:11:29.743Z,63.6
2018-07-20T09:12:19.684Z,63.6
2018-07-20T09:13:09.472Z,63.6
2018-07-20T09:13:59.903Z,63.9
2018-07-20T09:14:49.584Z,64
2018-07-20T09:15:39.385Z,64.1
2018-07-20T09:16:29.989Z,64.6
2018-07-20T09:17:20.052Z,65.1
2018-07-20T09:18:10.137Z,65.5
2018-07-20T09:18:59.939Z,65.6
2018-07-20T09:19:49.983Z,65.8
2018-07-20T09:20:40.870Z,65.9
2018-07-20T09:21:30.129Z,65
2018-07-20T09:22:19.913Z,63.4
2018-07-20T09:23:10.551Z,61.8
2018-07-20T09:24:00.318Z,61.3
2018-07-20T09:24:50.639Z,61.2
2018-07-20T09:25:40.226Z,61
2018-07-20T09:26:30.794Z,61.6
2018-07-20T09:27:20.860Z,62.2
2018-07-20T09:28:10.961Z,61.9
2018-07-20T09:29:00.693Z,60.7
2018-07-20T09:29:51.044Z,59.1
2018-07-20T09:31:30.886Z,56.8
2018-07-20T09:32:21.265Z,56.9
2018-07-20T09:33:11.296Z,58.8
2018-07-20T09:34:01.578Z,60.5
2018-07-20T09:34:51.449Z,61.7
2018-07-20T09:35:41.478Z,62.2
2018-07-20T09:36:31.540Z,62.4
2018-07-20T09:37:21.622Z,62.5
2018-07-20T09:38:11.131Z,62.6
2018-07-20T09:39:01.469Z,63.3
2018-07-20T09:39:51.868Z,63.8
2018-07-20T09:40:41.857Z,64.4
2018-07-20T09:41:31.645Z,64.6
2018-07-20T09:42:21.701Z,63.3
2018-07-20T09:43:12.089Z,61.3
2018-07-20T09:44:02.386Z,59.3
2018-07-20T09:44:52.172Z,57.8
2018-07-20T09:45:42.262Z,57
2018-07-20T09:46:32.313Z,56.5
2018-07-20T09:47:22.391Z,56.3
2018-07-20T09:48:12.445Z,56.1
2018-07-20T09:49:03.129Z,55.7
2018-07-20T09:49:52.592Z,55.7
2018-07-20T09:50:42.629Z,56.7
2018-07-20T09:51:32.436Z,58.3
2018-07-20T09:52:22.757Z,59.4
2018-07-20T09:53:12.538Z,60.1
2018-07-20T09:54:02.350Z,60
2018-07-20T09:54:52.660Z,60.1
2018-07-20T09:55:42.747Z,59.9
2018-07-20T09:56:33.102Z,59.4
2018-07-20T09:57:22.620Z,59.3
2018-07-20T09:58:13.209Z,60.1
2018-07-20T09:59:03.295Z,61.4
2018-07-20T09:59:53.704Z,62.6
2018-07-20T10:00:42.861Z,63
2018-07-20T10:01:33.204Z,62.3
2018-07-20T10:02:23.539Z,60.7
2018-07-20T10:03:13.626Z,58.8
2018-07-20T10:04:03.679Z,57.6
2018-07-20T10:05:43.801Z,59.1
2018-07-20T10:06:33.575Z,60.6
2018-07-20T10:07:23.912Z,62.3
2018-07-20T10:08:14.007Z,62.7
2018-07-20T10:09:04.073Z,62.1
2018-07-20T10:09:54.140Z,62.1
2018-07-20T10:10:44.178Z,61.8
2018-07-20T10:11:33.813Z,60.5
2018-07-20T10:12:24.317Z,59.4
2018-07-20T10:13:14.365Z,59.3
2018-07-20T10:14:04.148Z,60.8
2018-07-20T10:14:54.605Z,62.3
2018-07-20T10:15:44.604Z,63.3
2018-07-20T10:16:34.614Z,63.2
2018-07-20T10:17:24.697Z,62.9
2018-07-20T10:18:14.487Z,62.2
2018-07-20T10:19:05.192Z,61.9
2018-07-20T10:19:54.353Z,62.8
2018-07-20T10:20:44.967Z,63.8
2018-07-20T10:21:35.015Z,64.8
2018-07-20T10:22:25.073Z,65.5
2018-07-20T10:23:14.860Z,65.4
2018-07-20T10:24:04.914Z,64.1
2018-07-20T10:24:55.253Z,62.3
2018-07-20T10:25:46.035Z,60.9
2018-07-20T10:26:35.385Z,60.1
2018-07-20T10:27:25.485Z,60
2018-07-20T10:28:15.528Z,60.3
2018-07-20T10:29:05.598Z,60.9
2018-07-20T10:29:55.642Z,61.9
2018-07-20T10:30:46.187Z,62.4
2018-07-20T10:31:35.767Z,62.5
2018-07-20T10:32:25.834Z,63.1
2018-07-20T10:33:15.912Z,63.8
2018-07-20T10:34:05.987Z,64.3
2018-07-20T10:34:56.052Z,64.8
2018-07-20T10:35:46.104Z,65.4
2018-07-20T10:36:36.421Z,65.2
2018-07-20T10:37:26.289Z,63.8
2018-07-20T10:38:16.303Z,62
2018-07-20T10:39:06.377Z,60.5
2018-07-20T10:39:56.419Z,59.3
2018-07-20T10:40:46.510Z,58.8
2018-07-20T10:41:36.289Z,59.2
2018-07-20T10:42:26.614Z,61.1
2018-07-20T10:43:17.024Z,63.3
2018-07-20T10:44:06.776Z,64.4
2018-07-20T10:44:56.802Z,64.7
2018-07-20T10:45:46.867Z,64.8
2018-07-20T10:46:36.101Z,64.8
2018-07-20T10:47:26.757Z,65
2018-07-20T10:48:16.822Z,65.3
2018-07-20T10:49:06.872Z,66
2018-07-20T10:49:56.640Z,66.3
2018-07-20T10:50:47.330Z,66.1
2018-07-20T10:51:37.343Z,66.4
2018-07-20T10:52:27.128Z,66.8
2018-07-20T10:53:17.453Z,66
2018-07-20T10:54:07.522Z,65
2018-07-20T10:54:57.337Z,63.9
2018-07-20T10:55:47.667Z,62.9
2018-07-20T10:56:37.159Z,62.3
2018-07-20T10:57:27.790Z,61.7
2018-07-20T10:58:17.837Z,61.4
2018-07-20T10:59:07.907Z,60.9
2018-07-20T10:59:57.121Z,60.7
2018-07-20T11:00:48.053Z,60.6
2018-07-20T11:01:38.867Z,60.9
2018-07-20T11:02:28.148Z,61.6
2018-07-20T11:03:17.939Z,61.8
2018-07-20T11:04:08.280Z,61.8
2018-07-20T11:04:58.343Z,61.6
2018-07-20T11:05:48.422Z,61.9
2018-07-20T11:06:38.471Z,62.6
2018-07-20T11:07:28.276Z,63.4
2018-07-20T11:08:18.608Z,63.1
2018-07-20T11:09:08.663Z,61.9
2018-07-20T11:09:58.726Z,60.9
2018-07-20T11:10:48.795Z,60.7
2018-07-20T11:11:38.900Z,60.5
2018-07-20T11:12:28.960Z,60.3
2018-07-20T11:13:18.995Z,60.4
2018-07-20T11:14:08.796Z,61.3
2018-07-20T11:14:58.860Z,61.6
2018-07-20T11:15:49.228Z,61.7
2018-07-20T11:16:39.371Z,61.4
2018-07-20T11:17:29.318Z,61.4
2018-07-20T11:18:19.395Z,62.1
2018-07-20T11:19:09.176Z,62.6
2018-07-20T11:19:59.520Z,62.5
2018-07-20T11:20:49.311Z,62.6
2018-07-20T11:21:39.682Z,62.5
2018-07-20T11:22:29.727Z,61.7
2018-07-20T11:23:19.227Z,60.8
2018-07-20T11:24:09.848Z,60.6
2018-07-20T11:24:59.919Z,60.6
2018-07-20T11:25:49.689Z,60.7
2018-07-20T11:26:40.037Z,60.6
2018-07-20T11:27:29.837Z,60.4
2018-07-20T11:28:20.204Z,60.1
2018-07-20T11:29:09.968Z,59.7
2018-07-20T11:30:00.024Z,59.4
2018-07-20T11:30:50.093Z,59
2018-07-20T11:31:40.139Z,58.7
2018-07-20T11:32:30.198Z,58.4